createdAt,value
2022-08-11T00:03:43.344Z,2.30
2022-08-11T00:06:14.112Z,1.88
2022-08-11T00:08:44.271Z,2.00
2022-08-11T00:11:13.554Z,2.20
2022-08-11T00:13:45.760Z,2.38
2022-08-11T00:16:16.587Z,2.30
2022-08-11T00:18:48.294Z,2.35
2022-08-11T00:21:16.541Z,2.38
2022-08-11T00:23:47.508Z,2.40
2022-08-11T00:26:17.714Z,2.40
2022-08-11T00:28:45.724Z,2.40
2022-08-11T00:31:24.866Z,2.20
2022-08-11T00:33:54.515Z,2.28
2022-08-11T00:36:28.824Z,2.28
2022-08-11T00:39:05.390Z,2.17
2022-08-11T00:41:40.515Z,2.40
2022-08-11T00:44:26.659Z,2.30
2022-08-11T00:47:03.299Z,2.10
2022-08-11T00:49:44.130Z,2.15
2022-08-11T00:52:30.707Z,2.13
2022-08-11T00:55:24.786Z,2.40
2022-08-11T00:58:30.191Z,1.90
2022-08-11T01:01:20.925Z,2.22
2022-08-11T01:04:11.030Z,2.28
2022-08-11T01:07:09.598Z,2.30
2022-08-11T01:09:55.979Z,2.00
2022-08-11T01:12:41.818Z,2.10
2022-08-11T01:15:56.095Z,2.35
2022-08-11T01:19:05.865Z,2.15
2022-08-11T01:22:19.516Z,2.25
2022-08-11T01:25:29.409Z,2.30
2022-08-11T01:28:47.461Z,2.20
2022-08-11T01:31:48.610Z,2.10
2022-08-11T01:34:58.129Z,2.70
2022-08-11T01:37:59.034Z,2.50
2022-08-11T01:40:58.054Z,2.33
2022-08-11T01:44:27.633Z,2.63
2022-08-11T01:47:07.068Z,2.25
2022-08-11T01:50:07.514Z,2.33
2022-08-11T01:52:44.069Z,2.47
2022-08-11T01:55:19.230Z,2.33
2022-08-11T01:57:54.522Z,2.28
2022-08-11T02:00:28.927Z,2.50
2022-08-11T02:03:08.463Z,2.75
2022-08-11T02:06:02.195Z,2.40
2022-08-11T02:08:50.531Z,2.55
2022-08-11T02:11:30.418Z,2.50
2022-08-11T02:14:03.131Z,2.90
2022-08-11T02:16:48.877Z,2.50
2022-08-11T02:19:42.618Z,2.58
2022-08-11T02:22:41.960Z,2.60
2022-08-11T02:25:22.986Z,2.40
2022-08-11T02:28:00.401Z,2.88
2022-08-11T02:30:36.454Z,2.50
2022-08-11T02:33:25.352Z,2.78
2022-08-11T02:36:04.654Z,2.70
2022-08-11T02:38:43.430Z,2.50
2022-08-11T02:41:38.349Z,2.38
2022-08-11T02:44:21.366Z,2.40
2022-08-11T02:46:58.091Z,2.50
2022-08-11T02:49:59.992Z,2.38
2022-08-11T02:52:40.600Z,2.45
2022-08-11T02:55:56.366Z,2.70
2022-08-11T02:58:27.122Z,2.60
2022-08-11T03:01:04.256Z,2.80
2022-08-11T03:03:39.185Z,2.50
2022-08-11T03:06:13.555Z,2.40
2022-08-11T03:08:52.743Z,2.80
2022-08-11T03:12:01.011Z,2.45
2022-08-11T03:14:56.546Z,2.80
2022-08-11T03:17:31.687Z,2.88
2022-08-11T03:20:12.500Z,2.53
2022-08-11T03:22:52.660Z,2.70
2022-08-11T03:25:39.183Z,2.58
2022-08-11T03:28:22.248Z,2.67
2022-08-11T03:30:56.010Z,2.67
2022-08-11T03:33:45.967Z,3.00
2022-08-11T03:37:16.679Z,2.97
2022-08-11T03:39:57.131Z,2.95
2022-08-11T03:42:36.023Z,2.50
2022-08-11T03:45:16.458Z,2.83
2022-08-11T03:48:01.927Z,2.40
2022-08-11T03:50:55.687Z,2.92
2022-08-11T03:53:40.836Z,3.63
2022-08-11T03:56:38.629Z,3.10
2022-08-11T03:59:39.923Z,2.80
2022-08-11T04:02:29.359Z,2.78
2022-08-11T04:05:34.613Z,3.08
2022-08-11T04:08:43.511Z,2.92
2022-08-11T04:11:59.828Z,2.58
2022-08-11T04:15:06.019Z,2.90
2022-08-11T04:18:18.702Z,2.42
2022-08-11T04:21:12.876Z,3.00
2022-08-11T04:24:37.786Z,3.42
2022-08-11T04:27:39.061Z,2.88
2022-08-11T04:30:12.340Z,2.60
2022-08-11T04:33:14.805Z,3.10
2022-08-11T04:35:55.632Z,2.75
2022-08-11T04:38:59.731Z,2.75
2022-08-11T04:42:14.065Z,3.20
2022-08-11T04:45:28.645Z,3.38
2022-08-11T04:48:33.496Z,3.63
2022-08-11T04:51:40.433Z,3.67
2022-08-11T04:54:43.821Z,3.58
2022-08-11T04:57:41.132Z,3.40
2022-08-11T05:00:28.454Z,3.22
2022-08-11T05:03:29.021Z,3.58
2022-08-11T05:06:28.174Z,3.78
2022-08-11T05:09:27.807Z,3.58
2022-08-11T05:12:15.314Z,3.13
2022-08-11T05:15:08.172Z,3.30
2022-08-11T05:18:00.765Z,3.40
2022-08-11T05:20:47.834Z,3.05
2022-08-11T05:23:35.621Z,3.28
2022-08-11T05:26:47.303Z,3.60
2022-08-11T05:29:46.256Z,4.20
2022-08-11T05:32:35.887Z,3.45
2022-08-11T05:35:07.848Z,3.35
2022-08-11T05:37:42.608Z,3.13
2022-08-11T05:40:30.759Z,3.65
2022-08-11T05:43:19.653Z,3.33
2022-08-11T05:46:15.798Z,3.50
2022-08-11T05:49:02.054Z,3.83
2022-08-11T05:51:55.399Z,3.75
2022-08-11T05:54:41.647Z,5.78
2022-08-11T05:57:49.067Z,3.75
2022-08-11T06:00:03.369Z,3.30
2022-08-11T06:02:31.561Z,3.40
2022-08-11T06:05:01.942Z,3.65
2022-08-11T06:07:49.548Z,3.60
2022-08-11T06:10:28.026Z,3.20
2022-08-11T06:12:56.888Z,3.10
2022-08-11T06:15:28.066Z,3.25
2022-08-11T06:17:56.800Z,3.90
2022-08-11T06:20:26.247Z,3.63
2022-08-11T06:22:58.786Z,3.60
2022-08-11T06:25:32.794Z,3.63
2022-08-11T06:28:03.617Z,3.70
2022-08-11T06:30:40.709Z,3.83
2022-08-11T06:33:11.465Z,3.60
2022-08-11T06:35:48.364Z,3.70
2022-08-11T06:38:27.283Z,4.00
2022-08-11T06:41:15.293Z,3.95
2022-08-11T06:43:56.151Z,4.15
2022-08-11T06:46:32.120Z,3.92
2022-08-11T06:49:03.572Z,4.07
2022-08-11T06:51:32.486Z,4.17
2022-08-11T06:54:05.102Z,4.20
2022-08-11T06:57:27.934Z,3.90
2022-08-11T07:00:03.620Z,3.72
2022-08-11T07:02:39.547Z,3.90
2022-08-11T07:05:13.511Z,4.43
2022-08-11T07:08:35.912Z,3.80
2022-08-11T07:11:51.467Z,3.90
2022-08-11T07:14:42.874Z,4.47
2022-08-11T07:17:17.460Z,4.18
2022-08-11T07:20:10.251Z,3.92
2022-08-11T07:23:05.026Z,4.00
2022-08-11T07:25:52.915Z,3.85
2022-08-11T07:28:42.991Z,3.83
2022-08-11T07:31:14.866Z,4.20
2022-08-11T07:34:08.309Z,4.45
2022-08-11T07:36:40.639Z,3.92
2022-08-11T07:39:16.426Z,4.55
2022-08-11T07:41:44.797Z,4.45
2022-08-11T07:44:13.404Z,4.72
2022-08-11T07:47:01.124Z,4.03
2022-08-11T07:49:49.900Z,4.10
2022-08-11T07:52:29.349Z,4.38
2022-08-11T07:54:59.950Z,3.80
2022-08-11T07:57:59.498Z,4.80
2022-08-11T08:00:55.732Z,4.40
2022-08-11T08:03:54.603Z,3.90
2022-08-11T08:06:41.100Z,4.10
2022-08-11T08:09:28.651Z,4.00
2022-08-11T08:12:14.670Z,3.88
2022-08-11T08:15:01.124Z,4.05
2022-08-11T08:18:09.408Z,3.80
2022-08-11T08:20:38.475Z,3.88
2022-08-11T08:23:07.245Z,3.60
2022-08-11T08:25:39.117Z,3.65
2022-08-11T08:28:10.516Z,3.75
2022-08-11T08:30:47.568Z,3.72
2022-08-11T08:33:18.720Z,4.25
2022-08-11T08:35:54.357Z,3.67
2022-08-11T08:38:23.545Z,3.90
2022-08-11T08:40:56.495Z,4.00
2022-08-11T08:43:25.620Z,4.13
2022-08-11T08:45:57.238Z,3.75
2022-08-11T08:48:26.887Z,3.92
2022-08-11T08:51:16.455Z,4.03
2022-08-11T08:53:53.288Z,4.18
2022-08-11T08:56:28.941Z,4.20
2022-08-11T08:59:00.518Z,3.80
2022-08-11T09:01:31.189Z,3.97
2022-08-11T09:04:07.019Z,3.63
2022-08-11T09:06:39.794Z,3.80
2022-08-11T09:09:09.245Z,4.00
2022-08-11T09:11:53.234Z,4.10
2022-08-11T09:14:23.660Z,4.07
2022-08-11T09:16:53.476Z,4.05
2022-08-11T09:19:22.597Z,3.88
2022-08-11T09:22:08.941Z,4.07
2022-08-11T09:24:56.003Z,3.90
2022-08-11T09:27:26.126Z,4.07
2022-08-11T09:29:54.971Z,3.85
2022-08-11T09:32:23.872Z,3.90
2022-08-11T09:34:54.057Z,3.72
2022-08-11T09:37:54.081Z,3.78
2022-08-11T09:40:30.987Z,3.80
2022-08-11T09:43:21.237Z,3.90
2022-08-11T09:45:51.834Z,3.65
2022-08-11T09:48:20.154Z,3.28
2022-08-11T09:50:53.530Z,3.42
2022-08-11T09:53:36.256Z,3.85
2022-08-11T09:56:30.082Z,3.30
2022-08-11T09:59:00.423Z,3.25
2022-08-11T10:01:32.628Z,3.10
2022-08-11T10:04:04.897Z,3.30
2022-08-11T10:06:54.480Z,3.38
2022-08-11T10:09:25.527Z,3.20
2022-08-11T10:11:58.205Z,3.28
2022-08-11T10:14:46.489Z,3.38
2022-08-11T10:17:17.048Z,3.35
2022-08-11T10:20:01.993Z,3.30
2022-08-11T10:22:52.302Z,3.13
2022-08-11T10:25:41.194Z,3.30
2022-08-11T10:28:32.937Z,3.40
2022-08-11T10:31:18.363Z,3.28
2022-08-11T10:34:03.758Z,3.50
2022-08-11T10:36:34.210Z,3.53
2022-08-11T10:39:04.433Z,3.50
2022-08-11T10:42:07.347Z,3.30
2022-08-11T10:44:40.002Z,3.00
2022-08-11T10:47:29.192Z,3.22
2022-08-11T10:50:15.969Z,3.45
2022-08-11T10:53:05.428Z,3.30
2022-08-11T10:55:50.957Z,3.55
2022-08-11T10:58:37.295Z,3.28
2022-08-11T11:01:06.849Z,3.20
2022-08-11T11:03:37.511Z,3.33
2022-08-11T11:06:27.464Z,3.13
2022-08-11T11:09:05.359Z,3.78
2022-08-11T11:11:55.894Z,3.08
2022-08-11T11:14:49.814Z,3.70
2022-08-11T11:17:45.479Z,2.90
2022-08-11T11:20:36.749Z,3.40
2022-08-11T11:23:09.307Z,3.00
2022-08-11T11:26:11.127Z,3.10
2022-08-11T11:29:16.263Z,4.00
2022-08-11T11:32:07.119Z,3.30
2022-08-11T11:34:53.533Z,3.38
2022-08-11T11:37:24.677Z,3.30
2022-08-11T11:39:54.134Z,3.33
2022-08-11T11:42:24.183Z,4.40
2022-08-11T11:44:55.795Z,3.92
2022-08-11T11:47:24.899Z,3.60
2022-08-11T11:49:54.327Z,3.30
2022-08-11T11:52:24.501Z,3.22
2022-08-11T11:54:56.638Z,3.15
2022-08-11T11:57:58.521Z,3.28
2022-08-11T12:00:45.831Z,3.53
2022-08-11T12:03:14.369Z,3.30
2022-08-11T12:05:44.757Z,3.42
2022-08-11T12:08:16.327Z,3.67
2022-08-11T12:10:50.233Z,3.45
2022-08-11T12:13:36.961Z,3.05
2022-08-11T12:16:33.192Z,3.55
2022-08-11T12:18:56.538Z,3.20
2022-08-11T12:21:25.204Z,3.25
2022-08-11T12:24:14.289Z,2.97
2022-08-11T12:27:16.744Z,3.47
2022-08-11T12:29:52.878Z,3.58
2022-08-11T12:32:25.355Z,3.38
2022-08-11T12:34:53.848Z,3.13
2022-08-11T12:37:26.383Z,3.35
2022-08-11T12:40:49.617Z,3.28
2022-08-11T12:43:37.397Z,3.60
2022-08-11T12:46:11.241Z,3.38
2022-08-11T12:49:03.292Z,3.30
2022-08-11T12:52:00.906Z,3.40
2022-08-11T12:54:48.068Z,3.60
2022-08-11T12:57:38.040Z,3.58
2022-08-11T13:00:26.287Z,3.20
2022-08-11T13:03:13.476Z,3.60
2022-08-11T13:05:45.140Z,3.53
2022-08-11T13:08:15.583Z,3.67
2022-08-11T13:11:01.925Z,3.50
2022-08-11T13:13:53.772Z,3.25
2022-08-11T13:16:20.564Z,3.38
2022-08-11T13:18:50.196Z,3.35
2022-08-11T13:21:20.435Z,3.33
2022-08-11T13:24:01.354Z,2.83
2022-08-11T13:26:43.145Z,3.95
2022-08-11T13:29:20.816Z,3.40
2022-08-11T13:31:49.299Z,3.72
2022-08-11T13:34:18.065Z,3.25
2022-08-11T13:36:48.852Z,3.33
2022-08-11T13:39:17.722Z,3.55
2022-08-11T13:41:47.749Z,3.47
2022-08-11T13:44:23.420Z,3.10
2022-08-11T13:46:55.198Z,3.30
2022-08-11T13:49:23.802Z,3.63
2022-08-11T13:51:53.090Z,3.50
2022-08-11T13:54:23.810Z,3.67
2022-08-11T13:56:55.220Z,3.42
2022-08-11T13:59:29.740Z,3.40
2022-08-11T14:02:22.318Z,3.47
2022-08-11T14:04:55.121Z,3.50
2022-08-11T14:09:58.573Z,3.50
2022-08-11T14:12:46.495Z,3.47
2022-08-11T14:15:20.962Z,3.60
2022-08-11T14:17:56.242Z,3.35
2022-08-11T14:20:39.775Z,3.08
2022-08-11T14:23:11.001Z,3.40
2022-08-11T14:26:02.937Z,3.28
2022-08-11T14:28:37.492Z,3.30
2022-08-11T14:31:11.446Z,3.53
2022-08-11T14:34:00.751Z,3.22
2022-08-11T14:36:31.946Z,3.40
2022-08-11T14:39:00.097Z,3.53
2022-08-11T14:42:10.992Z,3.55
2022-08-11T14:44:54.664Z,3.10
2022-08-11T14:47:25.611Z,3.60
2022-08-11T14:49:57.976Z,3.50
2022-08-11T14:52:38.393Z,3.33
2022-08-11T14:55:26.254Z,3.22
2022-08-11T14:57:56.716Z,3.50
2022-08-11T15:00:26.421Z,3.47
2022-08-11T15:03:11.714Z,3.50
2022-08-11T15:05:57.705Z,3.40
2022-08-11T15:08:49.338Z,3.35
2022-08-11T15:11:39.161Z,3.28
2022-08-11T15:14:08.930Z,3.35
2022-08-11T15:16:56.054Z,3.42
2022-08-11T15:19:40.546Z,3.30
2022-08-11T15:22:28.462Z,3.20
2022-08-11T15:24:58.124Z,3.10
2022-08-11T15:27:49.856Z,3.00
2022-08-11T15:30:35.463Z,3.22
2022-08-11T15:33:24.300Z,3.47
2022-08-11T15:36:11.533Z,4.05
2022-08-11T15:38:44.974Z,3.15
2022-08-11T15:41:34.308Z,3.47
2022-08-11T15:44:51.466Z,3.40
2022-08-11T15:47:19.094Z,3.05
2022-08-11T15:50:12.000Z,3.00
2022-08-11T15:52:48.787Z,3.20
2022-08-11T15:55:18.169Z,3.00
2022-08-11T15:58:07.457Z,2.90
2022-08-11T16:01:01.253Z,3.20
2022-08-11T16:04:08.175Z,3.17
2022-08-11T16:06:47.698Z,3.40
2022-08-11T16:09:21.590Z,3.28
2022-08-11T16:11:50.760Z,3.47
2022-08-11T16:14:39.040Z,3.40
2022-08-11T16:17:09.628Z,3.20
2022-08-11T16:19:38.484Z,3.20
2022-08-11T16:22:09.071Z,3.00
2022-08-11T16:27:07.088Z,3.40
2022-08-11T16:27:34.166Z,3.00
2022-08-11T16:30:04.838Z,3.58
2022-08-11T16:32:34.217Z,3.30
2022-08-11T16:35:21.749Z,3.35
2022-08-11T16:38:08.965Z,3.50
2022-08-11T16:40:40.246Z,3.15
2022-08-11T16:43:28.322Z,3.10
2022-08-11T16:46:15.412Z,3.03
2022-08-11T16:48:47.129Z,3.10
2022-08-11T16:51:15.452Z,3.10
2022-08-11T16:53:59.463Z,3.08
2022-08-11T16:56:38.437Z,3.60
2022-08-11T16:59:14.772Z,3.28
2022-08-11T17:01:46.976Z,3.03
2022-08-11T17:04:39.439Z,3.53
2022-08-11T17:07:42.023Z,2.88
2022-08-11T17:10:50.342Z,3.25
2022-08-11T17:13:26.908Z,3.25
2022-08-11T17:16:07.633Z,3.35
2022-08-11T17:18:43.066Z,3.25
2022-08-11T17:21:15.087Z,3.30
2022-08-11T17:23:47.978Z,3.35
2022-08-11T17:26:19.326Z,3.08
2022-08-11T17:28:52.647Z,3.10
2022-08-11T17:31:40.579Z,3.22
2022-08-11T17:34:26.893Z,3.50
2022-08-11T17:36:56.222Z,3.40
2022-08-11T17:39:30.217Z,3.28
2022-08-11T17:42:15.737Z,3.35
2022-08-11T17:45:03.756Z,3.10
2022-08-11T17:47:49.914Z,3.50
2022-08-11T17:50:18.671Z,3.22
2022-08-11T17:53:05.521Z,3.42
2022-08-11T17:55:53.596Z,3.40
2022-08-11T17:58:40.554Z,3.85
2022-08-11T18:01:12.169Z,3.47
2022-08-11T18:03:41.902Z,3.53
2022-08-11T18:06:32.602Z,3.60
2022-08-11T18:09:22.631Z,3.60
2022-08-11T18:12:11.954Z,3.50
2022-08-11T18:15:00.915Z,3.70
2022-08-11T18:17:48.009Z,3.38
2022-08-11T18:20:33.725Z,3.50
2022-08-11T18:23:45.684Z,3.70
2022-08-11T18:26:30.798Z,3.55
2022-08-11T18:29:19.284Z,3.75
2022-08-11T18:32:08.657Z,3.60
2022-08-11T18:35:00.442Z,4.30
2022-08-11T18:37:49.861Z,4.38
2022-08-11T18:40:38.516Z,4.03
2022-08-11T18:43:27.581Z,4.07
2022-08-11T18:46:17.894Z,4.40
2022-08-11T18:49:15.534Z,3.80
2022-08-11T18:52:17.802Z,3.90
2022-08-11T18:55:07.474Z,4.20
2022-08-11T18:58:01.796Z,3.78
2022-08-11T19:00:48.614Z,3.53
2022-08-11T19:03:48.833Z,4.15
2022-08-11T19:06:40.946Z,4.30
2022-08-11T19:09:31.441Z,3.90
2022-08-11T19:12:23.733Z,3.85
2022-08-11T19:18:09.199Z,3.58
2022-08-11T19:20:55.853Z,3.85
2022-08-11T19:23:51.809Z,4.00
2022-08-11T19:26:39.593Z,4.00
2022-08-11T19:30:07.644Z,3.95
2022-08-11T19:35:35.258Z,3.92
2022-08-11T19:38:22.723Z,4.15
2022-08-11T19:41:09.392Z,3.90
2022-08-11T19:43:57.785Z,4.15
2022-08-11T19:46:44.394Z,4.28
2022-08-11T19:49:31.920Z,3.67
2022-08-11T19:52:18.038Z,3.92
2022-08-11T19:55:04.454Z,3.78
2022-08-11T19:57:51.039Z,3.70
2022-08-11T20:00:39.032Z,4.07
2022-08-11T20:03:26.717Z,3.80
2022-08-11T20:06:14.750Z,3.60
2022-08-11T20:09:02.800Z,3.70
2022-08-11T20:11:51.501Z,5.40
2022-08-11T20:14:39.322Z,5.13
2022-08-11T20:17:27.576Z,3.95
2022-08-11T20:20:13.564Z,4.03
2022-08-11T20:22:59.690Z,3.95
2022-08-11T20:25:45.997Z,3.72
2022-08-11T20:28:33.017Z,3.90
2022-08-11T20:31:18.151Z,3.75
2022-08-11T20:34:05.666Z,3.80
2022-08-11T20:36:54.866Z,3.65
2022-08-11T20:39:43.221Z,3.70
2022-08-11T20:42:30.905Z,3.75
2022-08-11T20:45:18.796Z,3.95
2022-08-11T20:48:10.035Z,4.05
2022-08-11T20:51:06.434Z,3.30
2022-08-11T20:53:55.470Z,3.85
2022-08-11T20:56:42.778Z,3.70
2022-08-11T20:59:29.744Z,3.65
2022-08-11T21:02:18.936Z,3.60
2022-08-11T21:05:13.162Z,3.47
2022-08-11T21:08:30.458Z,3.50
2022-08-11T21:11:27.707Z,3.55
2022-08-11T21:14:13.865Z,3.50
2022-08-11T21:17:01.044Z,3.28
2022-08-11T21:20:15.552Z,3.60
2022-08-11T21:23:19.947Z,3.58
2022-08-11T21:26:41.864Z,3.70
2022-08-11T21:29:28.832Z,3.35
2022-08-11T21:32:15.993Z,3.60
2022-08-11T21:35:02.477Z,3.20
2022-08-11T21:37:50.287Z,3.30
2022-08-11T21:40:40.798Z,3.40
2022-08-11T21:43:27.616Z,3.40
2022-08-11T21:46:16.241Z,2.92
2022-08-11T21:49:02.995Z,3.58
2022-08-11T21:51:50.223Z,3.13
2022-08-11T21:54:36.451Z,3.40
2022-08-11T21:57:24.905Z,3.03
2022-08-11T22:00:12.409Z,3.40
2022-08-11T22:02:58.757Z,2.90
2022-08-11T22:05:45.385Z,3.22
2022-08-11T22:08:31.703Z,3.10
2022-08-11T22:11:32.478Z,2.83
2022-08-11T22:14:19.824Z,3.20
2022-08-11T22:17:05.177Z,3.28
2022-08-11T22:19:52.604Z,2.88
2022-08-11T22:22:52.552Z,3.13
2022-08-11T22:25:49.937Z,3.17
2022-08-11T22:28:37.151Z,2.92
2022-08-11T22:31:25.403Z,3.40
2022-08-11T22:34:10.825Z,3.10
2022-08-11T22:36:57.523Z,3.30
2022-08-11T22:39:45.018Z,3.03
2022-08-11T22:42:46.071Z,3.30
2022-08-11T22:45:31.902Z,3.35
2022-08-11T22:48:20.325Z,2.92
2022-08-11T22:51:05.926Z,3.33
2022-08-11T22:53:58.066Z,3.30
2022-08-11T22:56:45.147Z,3.22
2022-08-11T22:59:31.519Z,3.60
2022-08-11T23:02:17.164Z,3.60
2022-08-11T23:05:04.447Z,3.58
2022-08-11T23:07:51.979Z,3.40
2022-08-11T23:10:38.205Z,3.80
2022-08-11T23:13:24.031Z,3.40
2022-08-11T23:16:10.564Z,3.30
2022-08-11T23:18:57.250Z,3.28
2022-08-11T23:21:45.971Z,3.40
2022-08-11T23:24:32.173Z,3.20
2022-08-11T23:27:18.711Z,2.85
2022-08-11T23:30:05.918Z,3.15
2022-08-11T23:32:52.034Z,2.95
2022-08-11T23:35:51.906Z,3.00
2022-08-11T23:38:42.086Z,3.03
2022-08-11T23:41:27.175Z,3.15
2022-08-11T23:44:13.019Z,3.42
2022-08-11T23:47:00.338Z,3.10
2022-08-11T23:49:46.668Z,3.50
2022-08-11T23:52:33.819Z,3.20
2022-08-11T23:55:21.474Z,3.08
2022-08-11T23:58:07.344Z,3.05
